Coral Leaf — PHNI — position and weather

sailwx.info

Track history (hours):
 
Tides and Currents Weather Stations Pressure Air Temp Water Temp Dewpoint Dewpoint Depression Visibility Wind Speed Wind Dir Waves Ship Positions

Coral Leaf

Last reported at 2015-Aug-01 15:33 UTC. Time now 2015-Aug-01 16:10 UTC.
Position N 51°15' E 004°20'.

Length 108 m; draft 6.3 m.

Type: Ship (hazmat cat A). MMSI: 244036000.

Date/timePositionNaut miles runAvg speedWind from/ knotsBaromVisibWave heightAir tempDewpointWater temp
2015-Aug-01 15:33N 51°15' E 004°20'0 0.0
2015-Aug-01 14:33N 51°15' E 004°20'0 0.0
2015-Aug-01 13:33N 51°15' E 004°20'0 0.0
2015-Aug-01 12:33N 51°15' E 004°20'0 0.0
2015-Aug-01 11:33N 51°15' E 004°20'0 0.0
2015-Aug-01 10:33N 51°15' E 004°20'0 0.0
2015-Aug-01 09:33N 51°15' E 004°20'0 0.0
2015-Aug-01 08:32N 51°15' E 004°20'0 0.0
2015-Aug-01 07:32N 51°15' E 004°20'0 0.0
2015-Aug-01 06:32N 51°15' E 004°20'0 0.0
2015-Aug-01 05:32N 51°15' E 004°20'0 0.0
2015-Aug-01 04:32N 51°15' E 004°20'0 0.0
2015-Aug-01 03:32N 51°15' E 004°20'0 0.0
2015-Aug-01 02:32N 51°15' E 004°20'0 0.0
2015-Aug-01 01:32N 51°15' E 004°20'0 0.0
2015-Aug-01 00:32N 51°15' E 004°20'0 0.0
2015-Jul-31 23:32N 51°15' E 004°20'0 0.0
2015-Jul-31 22:31N 51°15' E 004°20'0 0.0
2015-Jul-31 21:31N 51°15' E 004°20'0 0.0
2015-Jul-31 20:31N 51°15' E 004°20'2 1.9
2015-Jul-31 19:33N 51°16' E 004°19'9 8.7
2015-Jul-31 18:34N 51°23' E 004°10'8 7.8
2015-Jul-31 17:33N 51°23' E 003°57'9 9.2
2015-Jul-31 16:33N 51°24' E 003°42'9 9.4
2015-Jul-31 15:33N 51°29' E 003°30'1312.9
2015-Jul-31 14:31N 51°40' E 003°18'1212.0
2015-Jul-31 13:32N 51°52' E 003°18'6214.5
2015-Jul-31 09:15N 52°51' E 003°50'1315.8
2015-Jul-31 08:26N 53°00' E 004°05'1415.3
2015-Jul-31 07:33N 53°09' E 004°22'1614.3
2015-Jul-31 06:26N 53°24' E 004°32'1314.2
2015-Jul-31 05:32N 53°36' E 004°39'1814.2
2015-Jul-31 04:16N 53°53' E 004°50'1014.5
2015-Jul-31 03:33N 54°03' E 004°56'1514.8
2015-Jul-31 02:33N 54°16' E 005°05'27114.3
2015-Jul-30 07:33N 58°12' E 009°04'4615.3
2015-Jul-30 04:34N 58°53' E 009°46'12 9.9
2015-Jul-30 03:20N 59°04' E 009°39'2 0.2
2015-Jul-29 17:31N 59°06' E 009°36'0 0.0
2015-Jul-29 16:31N 59°06' E 009°36'0 0.0
2015-Jul-29 15:16N 59°06' E 009°36'1 0.9
2015-Jul-29 14:33N 59°06' E 009°37'22 3.4
2015-Jul-29 08:09N 58°46' E 009°55'1 1.4
2015-Jul-29 07:33N 58°46' E 009°57'26 4.3
2015-Jul-29 01:23N 58°27' E 010°31'1315.8
2015-Jul-29 00:34N 58°17' E 010°47'1616.2
2015-Jul-28 23:34N 58°04' E 011°05'1616.0
2015-Jul-28 22:34N 57°52' E 011°25'1110.7
2015-Jul-28 21:33N 57°57' E 011°43'9 7.6
2015-Jul-28 20:25N 58°05' E 011°49'0 0.0
2015-Jul-28 19:31N 58°05' E 011°49'0 0.0
2015-Jul-28 18:31N 58°05' E 011°49'0 0.0
2015-Jul-28 17:31N 58°05' E 011°49'0 0.0
2015-Jul-28 16:31N 58°05' E 011°49'0 0.0
2015-Jul-28 15:31N 58°05' E 011°49'0 0.0
2015-Jul-28 14:31N 58°05' E 011°49'0 0.0
2015-Jul-28 13:28N 58°05' E 011°49'0 0.0
2015-Jul-28 12:31N 58°05' E 011°49'0 0.0
2015-Jul-28 11:28N 58°05' E 011°49'0 0.0
2015-Jul-28 10:31N 58°05' E 011°49'0 0.0
2015-Jul-28 09:31N 58°05' E 011°49'0 0.0
2015-Jul-28 08:31N 58°05' E 011°49'0 0.1
2015-Jul-28 07:33N 58°05' E 011°49'9 8.9
2015-Jul-28 06:33N 57°57' E 011°42'1111.4
2015-Jul-28 05:33N 57°50' E 011°25'1413.9
2015-Jul-28 04:33N 58°01' E 011°10'1514.9
2015-Jul-28 03:33N 58°13' E 010°52'1514.6
2015-Jul-28 02:33N 58°24' E 010°35'1614.3
2015-Jul-28 01:25N 58°37' E 010°15'1214.3
2015-Jul-28 00:33N 58°47' E 010°02'1613.3
2015-Jul-27 23:20N 59°01' E 009°45'7 8.9
2015-Jul-27 22:33N 59°06' E 009°36'0 0.0
2015-Jul-27 14:06N 59°06' E 009°36'1 0.2
2015-Jul-27 08:30N 59°06' E 009°37'0 0.0
2015-Jul-27 05:33N 59°06' E 009°37'0 0.0
2015-Jul-27 04:21N 59°06' E 009°37'0 0.0
2015-Jul-27 00:24N 59°06' E 009°37'0 0.0
2015-Jul-26 23:24N 59°06' E 009°37'0 0.0
2015-Jul-26 18:15N 59°06' E 009°37'0 0.0
2015-Jul-26 17:33N 59°06' E 009°37'0 0.0
2015-Jul-26 16:30N 59°06' E 009°37'0 0.1
2015-Jul-26 15:26N 59°06' E 009°37'1 0.9
2015-Jul-26 14:26N 59°06' E 009°36'0 0.0
2015-Jul-26 13:33N 59°06' E 009°36'0 0.0
2015-Jul-26 12:27N 59°06' E 009°36'0 0.0
2015-Jul-26 11:33N 59°06' E 009°36'0 0.0
2015-Jul-26 10:30N 59°06' E 009°36'0 0.0
2015-Jul-26 09:33N 59°06' E 009°36'0 0.0
2015-Jul-26 08:33N 59°06' E 009°36'0 0.0
2015-Jul-26 07:33N 59°06' E 009°36'0 0.0
2015-Jul-26 06:33N 59°06' E 009°36'0 0.0
2015-Jul-26 05:33N 59°06' E 009°36'3 2.7
2015-Jul-26 04:31N 59°04' E 009°39'18 1.7
2015-Jul-25 18:08N 58°46' E 009°45'1 1.1
2015-Jul-25 17:32N 58°46' E 009°44'1 1.4
2015-Jul-25 16:32N 58°46' E 009°47'1 0.7
2015-Jul-25 15:33N 58°46' E 009°46'1 1.3
2015-Jul-25 14:33N 58°45' E 009°44'12012.0
2015-Jul-25 04:32N 57°01' E 007°50'9513.6
2015-Jul-24 21:32N 55°30' E 006°60'1414.4
2015-Jul-24 20:34N 55°16' E 007°02'1514.8
2015-Jul-24 19:34N 55°01' E 007°05'1515.3
2015-Jul-24 18:34N 54°46' E 007°12'1515.1
2015-Jul-24 17:34N 54°32' E 007°19'1515.1
2015-Jul-24 16:34N 54°17' E 007°27'1414.4
2015-Jul-24 15:34N 54°04' E 007°36'1413.7
2015-Jul-24 14:33N 53°53' E 007°49'1211.8
2015-Jul-24 13:33N 53°44' E 008°04'6 5.9
2015-Jul-24 12:33N 53°39' E 008°06'0 0.0
2015-Jul-24 11:33N 53°39' E 008°06'0 0.0
2015-Jul-24 10:33N 53°39' E 008°06'0 0.0
2015-Jul-24 09:33N 53°39' E 008°06'0 0.0
2015-Jul-24 08:33N 53°39' E 008°06'0 0.0
2015-Jul-24 07:33N 53°39' E 008°06'0 0.0
2015-Jul-24 06:34N 53°39' E 008°06'0 0.0
2015-Jul-24 05:33N 53°39' E 008°06'0 0.0
2015-Jul-24 04:33N 53°39' E 008°06'0 0.0
2015-Jul-24 03:33N 53°39' E 008°06'0 0.0
2015-Jul-24 02:33N 53°39' E 008°06'0 0.0
2015-Jul-24 01:33N 53°39' E 008°06'0 0.0
2015-Jul-24 00:33N 53°39' E 008°06'0 0.0
2015-Jul-23 23:33N 53°39' E 008°06'0 0.0
2015-Jul-23 22:33N 53°39' E 008°06'0 0.0
2015-Jul-23 21:33N 53°39' E 008°06'0 0.0
2015-Jul-23 20:34N 53°39' E 008°06'0 0.0
2015-Jul-23 19:33N 53°39' E 008°06'0 0.0
2015-Jul-23 18:33N 53°39' E 008°06'0 0.0
2015-Jul-23 17:33N 53°39' E 008°06'2 1.6
2015-Jul-23 16:33N 53°40' E 008°06'1111.2
2015-Jul-23 15:33N 53°49' E 007°55'7 5.8
2015-Jul-23 14:25N 53°54' E 007°48'0 0.0
2015-Jul-23 13:28N 53°54' E 007°48'0 0.0
2015-Jul-23 12:31N 53°54' E 007°48'0 0.0
2015-Jul-23 11:17N 53°54' E 007°48'0 0.0
2015-Jul-23 10:33N 53°54' E 007°48'0 0.0
2015-Jul-23 09:21N 53°54' E 007°48'0 0.1
2015-Jul-23 08:33N 53°54' E 007°48'9 9.4
2015-Jul-23 07:34N 54°00' E 007°35'1414.2
2015-Jul-23 06:33N 54°13' E 007°24'1414.2
2015-Jul-23 05:33N 54°27' E 007°18'1414.1
2015-Jul-23 04:33N 54°41' E 007°13'1414.5
2015-Jul-23 03:33N 54°55' E 007°07'1514.8
2015-Jul-23 02:33N 55°09' E 007°03'1514.9
2015-Jul-23 01:33N 55°24' E 007°03'1514.9
2015-Jul-23 00:33N 55°39' E 007°03'  
Track history (hours):
 
Tides and Currents Weather Stations Pressure Air Temp Water Temp Dewpoint Dewpoint Depression Visibility Wind Speed Wind Dir Waves Ship Positions

Coral Leaf

Last reported at 2015-Aug-01 15:33 UTC. Time now 2015-Aug-01 16:10 UTC.
Position N 51°15' E 004°20'.

Length 108 m; draft 6.3 m.

Type: Ship (hazmat cat A). MMSI: 244036000.

Date/timePositionNaut miles runAvg speedWind from/ knotsBaromVisibWave heightAir tempDewpointWater temp
2015-Aug-01 15:33N 51°15' E 004°20'0 0.0
2015-Aug-01 14:33N 51°15' E 004°20'0 0.0
2015-Aug-01 13:33N 51°15' E 004°20'0 0.0
2015-Aug-01 12:33N 51°15' E 004°20'0 0.0
2015-Aug-01 11:33N 51°15' E 004°20'0 0.0
2015-Aug-01 10:33N 51°15' E 004°20'0 0.0
2015-Aug-01 09:33N 51°15' E 004°20'0 0.0
2015-Aug-01 08:32N 51°15' E 004°20'0 0.0
2015-Aug-01 07:32N 51°15' E 004°20'0 0.0
2015-Aug-01 06:32N 51°15' E 004°20'0 0.0
2015-Aug-01 05:32N 51°15' E 004°20'0 0.0
2015-Aug-01 04:32N 51°15' E 004°20'0 0.0
2015-Aug-01 03:32N 51°15' E 004°20'0 0.0
2015-Aug-01 02:32N 51°15' E 004°20'0 0.0
2015-Aug-01 01:32N 51°15' E 004°20'0 0.0
2015-Aug-01 00:32N 51°15' E 004°20'0 0.0
2015-Jul-31 23:32N 51°15' E 004°20'0 0.0
2015-Jul-31 22:31N 51°15' E 004°20'0 0.0
2015-Jul-31 21:31N 51°15' E 004°20'0 0.0
2015-Jul-31 20:31N 51°15' E 004°20'2 1.9
2015-Jul-31 19:33N 51°16' E 004°19'9 8.7
2015-Jul-31 18:34N 51°23' E 004°10'8 7.8
2015-Jul-31 17:33N 51°23' E 003°57'9 9.2
2015-Jul-31 16:33N 51°24' E 003°42'9 9.4
2015-Jul-31 15:33N 51°29' E 003°30'1312.9
2015-Jul-31 14:31N 51°40' E 003°18'1212.0
2015-Jul-31 13:32N 51°52' E 003°18'6214.5
2015-Jul-31 09:15N 52°51' E 003°50'1315.8
2015-Jul-31 08:26N 53°00' E 004°05'1415.3
2015-Jul-31 07:33N 53°09' E 004°22'1614.3
2015-Jul-31 06:26N 53°24' E 004°32'1314.2
2015-Jul-31 05:32N 53°36' E 004°39'1814.2
2015-Jul-31 04:16N 53°53' E 004°50'1014.5
2015-Jul-31 03:33N 54°03' E 004°56'1514.8
2015-Jul-31 02:33N 54°16' E 005°05'27114.3
2015-Jul-30 07:33N 58°12' E 009°04'4615.3
2015-Jul-30 04:34N 58°53' E 009°46'12 9.9
2015-Jul-30 03:20N 59°04' E 009°39'2 0.2
2015-Jul-29 17:31N 59°06' E 009°36'0 0.0
2015-Jul-29 16:31N 59°06' E 009°36'0 0.0
2015-Jul-29 15:16N 59°06' E 009°36'1 0.9
2015-Jul-29 14:33N 59°06' E 009°37'22 3.4
2015-Jul-29 08:09N 58°46' E 009°55'1 1.4
2015-Jul-29 07:33N 58°46' E 009°57'26 4.3
2015-Jul-29 01:23N 58°27' E 010°31'1315.8
2015-Jul-29 00:34N 58°17' E 010°47'1616.2
2015-Jul-28 23:34N 58°04' E 011°05'1616.0
2015-Jul-28 22:34N 57°52' E 011°25'1110.7
2015-Jul-28 21:33N 57°57' E 011°43'9 7.6
2015-Jul-28 20:25N 58°05' E 011°49'0 0.0
2015-Jul-28 19:31N 58°05' E 011°49'0 0.0
2015-Jul-28 18:31N 58°05' E 011°49'0 0.0
2015-Jul-28 17:31N 58°05' E 011°49'0 0.0
2015-Jul-28 16:31N 58°05' E 011°49'0 0.0
2015-Jul-28 15:31N 58°05' E 011°49'0 0.0
2015-Jul-28 14:31N 58°05' E 011°49'0 0.0
2015-Jul-28 13:28N 58°05' E 011°49'0 0.0
2015-Jul-28 12:31N 58°05' E 011°49'0 0.0
2015-Jul-28 11:28N 58°05' E 011°49'0 0.0
2015-Jul-28 10:31N 58°05' E 011°49'0 0.0
2015-Jul-28 09:31N 58°05' E 011°49'0 0.0
2015-Jul-28 08:31N 58°05' E 011°49'0 0.1
2015-Jul-28 07:33N 58°05' E 011°49'9 8.9
2015-Jul-28 06:33N 57°57' E 011°42'1111.4
2015-Jul-28 05:33N 57°50' E 011°25'1413.9
2015-Jul-28 04:33N 58°01' E 011°10'1514.9
2015-Jul-28 03:33N 58°13' E 010°52'1514.6
2015-Jul-28 02:33N 58°24' E 010°35'1614.3
2015-Jul-28 01:25N 58°37' E 010°15'1214.3
2015-Jul-28 00:33N 58°47' E 010°02'1613.3
2015-Jul-27 23:20N 59°01' E 009°45'7 8.9
2015-Jul-27 22:33N 59°06' E 009°36'0 0.0
2015-Jul-27 14:06N 59°06' E 009°36'1 0.2
2015-Jul-27 08:30N 59°06' E 009°37'0 0.0
2015-Jul-27 05:33N 59°06' E 009°37'0 0.0
2015-Jul-27 04:21N 59°06' E 009°37'0 0.0
2015-Jul-27 00:24N 59°06' E 009°37'0 0.0
2015-Jul-26 23:24N 59°06' E 009°37'0 0.0
2015-Jul-26 18:15N 59°06' E 009°37'0 0.0
2015-Jul-26 17:33N 59°06' E 009°37'0 0.0
2015-Jul-26 16:30N 59°06' E 009°37'0 0.1
2015-Jul-26 15:26N 59°06' E 009°37'1 0.9
2015-Jul-26 14:26N 59°06' E 009°36'0 0.0
2015-Jul-26 13:33N 59°06' E 009°36'0 0.0
2015-Jul-26 12:27N 59°06' E 009°36'0 0.0
2015-Jul-26 11:33N 59°06' E 009°36'0 0.0
2015-Jul-26 10:30N 59°06' E 009°36'0 0.0
2015-Jul-26 09:33N 59°06' E 009°36'0 0.0
2015-Jul-26 08:33N 59°06' E 009°36'0 0.0
2015-Jul-26 07:33N 59°06' E 009°36'0 0.0
2015-Jul-26 06:33N 59°06' E 009°36'0 0.0
2015-Jul-26 05:33N 59°06' E 009°36'3 2.7
2015-Jul-26 04:31N 59°04' E 009°39'18 1.7
2015-Jul-25 18:08N 58°46' E 009°45'1 1.1
2015-Jul-25 17:32N 58°46' E 009°44'1 1.4
2015-Jul-25 16:32N 58°46' E 009°47'1 0.7
2015-Jul-25 15:33N 58°46' E 009°46'1 1.3
2015-Jul-25 14:33N 58°45' E 009°44'12012.0
2015-Jul-25 04:32N 57°01' E 007°50'9513.6
2015-Jul-24 21:32N 55°30' E 006°60'1414.4
2015-Jul-24 20:34N 55°16' E 007°02'1514.8
2015-Jul-24 19:34N 55°01' E 007°05'1515.3
2015-Jul-24 18:34N 54°46' E 007°12'1515.1
2015-Jul-24 17:34N 54°32' E 007°19'1515.1
2015-Jul-24 16:34N 54°17' E 007°27'1414.4
2015-Jul-24 15:34N 54°04' E 007°36'1413.7
2015-Jul-24 14:33N 53°53' E 007°49'1211.8
2015-Jul-24 13:33N 53°44' E 008°04'6 5.9
2015-Jul-24 12:33N 53°39' E 008°06'0 0.0
2015-Jul-24 11:33N 53°39' E 008°06'0 0.0
2015-Jul-24 10:33N 53°39' E 008°06'0 0.0
2015-Jul-24 09:33N 53°39' E 008°06'0 0.0
2015-Jul-24 08:33N 53°39' E 008°06'0 0.0
2015-Jul-24 07:33N 53°39' E 008°06'0 0.0
2015-Jul-24 06:34N 53°39' E 008°06'0 0.0
2015-Jul-24 05:33N 53°39' E 008°06'0 0.0
2015-Jul-24 04:33N 53°39' E 008°06'0 0.0
2015-Jul-24 03:33N 53°39' E 008°06'0 0.0
2015-Jul-24 02:33N 53°39' E 008°06'0 0.0
2015-Jul-24 01:33N 53°39' E 008°06'0 0.0
2015-Jul-24 00:33N 53°39' E 008°06'0 0.0
2015-Jul-23 23:33N 53°39' E 008°06'0 0.0
2015-Jul-23 22:33N 53°39' E 008°06'0 0.0
2015-Jul-23 21:33N 53°39' E 008°06'0 0.0
2015-Jul-23 20:34N 53°39' E 008°06'0 0.0
2015-Jul-23 19:33N 53°39' E 008°06'0 0.0
2015-Jul-23 18:33N 53°39' E 008°06'0 0.0
2015-Jul-23 17:33N 53°39' E 008°06'2 1.6
2015-Jul-23 16:33N 53°40' E 008°06'1111.2
2015-Jul-23 15:33N 53°49' E 007°55'7 5.8
2015-Jul-23 14:25N 53°54' E 007°48'0 0.0
2015-Jul-23 13:28N 53°54' E 007°48'0 0.0
2015-Jul-23 12:31N 53°54' E 007°48'0 0.0
2015-Jul-23 11:17N 53°54' E 007°48'0 0.0
2015-Jul-23 10:33N 53°54' E 007°48'0 0.0
2015-Jul-23 09:21N 53°54' E 007°48'0 0.1
2015-Jul-23 08:33N 53°54' E 007°48'9 9.4
2015-Jul-23 07:34N 54°00' E 007°35'1414.2
2015-Jul-23 06:33N 54°13' E 007°24'1414.2
2015-Jul-23 05:33N 54°27' E 007°18'1414.1
2015-Jul-23 04:33N 54°41' E 007°13'1414.5
2015-Jul-23 03:33N 54°55' E 007°07'1514.8
2015-Jul-23 02:33N 55°09' E 007°03'1514.9
2015-Jul-23 01:33N 55°24' E 007°03'1514.9
2015-Jul-23 00:33N 55°39' E 007°03'  

Dump ship's entire track history